Time;durP1;ratioP1;P1;durP2;ratioP2;P2;SDS_P1;SDS_P2;PMS_P1;PMS_P2;Temp;Humidity;BMP_temperature;BMP_pressure;BME280_temperature;BME280_humidity;BME280_pressure;Samples;Min_cycle;Max_cycle;Signal;HPM_P1;HPM_P2
2022/07/22 00:02:10;;;;;;;36.78;10.05;;;;;;;16.06;100.00;101803.22;5024480;28;20115;-77
2022/07/22 00:04:35;;;;;;;30.00;10.98;;;;;;;16.25;100.00;101811.63;5038301;28;20037;-78
2022/07/22 00:07:01;;;;;;;27.60;10.13;;;;;;;16.17;100.00;101814.19;5041961;28;20124;-78
2022/07/22 00:09:26;;;;;;;33.55;11.57;;;;;;;16.13;100.00;101816.34;5035262;28;20040;-78
2022/07/22 00:11:52;;;;;;;24.75;10.13;;;;;;;16.20;100.00;101815.78;5043812;28;20048;-78
2022/07/22 00:14:18;;;;;;;32.90;10.82;;;;;;;16.13;100.00;101808.06;5037112;28;20108;-78
2022/07/22 00:16:43;;;;;;;25.25;10.07;;;;;;;16.21;100.00;101814.78;5042454;28;20115;-77
2022/07/22 00:19:09;;;;;;;26.98;10.55;;;;;;;16.08;100.00;101815.00;5019471;28;20038;-77
2022/07/22 00:21:35;;;;;;;23.23;10.15;;;;;;;16.02;100.00;101812.75;5035485;28;20087;-77
2022/07/22 00:24:01;;;;;;;22.42;9.57;;;;;;;16.02;100.00;101815.50;5041345;28;20028;-77
2022/07/22 00:26:26;;;;;;;25.42;9.90;;;;;;;16.12;100.00;101810.97;5026495;28;20132;-78
2022/07/22 00:28:51;;;;;;;25.23;9.63;;;;;;;16.12;100.00;101808.19;5017558;28;20037;-77
2022/07/22 00:31:17;;;;;;;30.83;10.10;;;;;;;16.03;100.00;101814.53;5051405;28;20041;-77
2022/07/22 00:33:42;;;;;;;33.25;9.93;;;;;;;16.04;100.00;101817.16;5048909;28;20037;-78
2022/07/22 00:36:09;;;;;;;23.42;9.50;;;;;;;16.10;100.00;101812.97;5044759;28;20540;-78
2022/07/22 00:38:34;;;;;;;28.30;9.93;;;;;;;16.10;100.00;101807.44;5039518;28;20481;-78
2022/07/22 00:41:00;;;;;;;26.25;10.00;;;;;;;16.11;100.00;101809.19;5033364;28;20049;-78
2022/07/22 00:43:27;;;;;;;24.20;9.48;;;;;;;16.03;100.00;101811.75;5044021;28;20017;-77
2022/07/22 00:45:52;;;;;;;23.58;10.40;;;;;;;16.11;100.00;101807.31;5033562;28;20500;-77
2022/07/22 00:48:18;;;;;;;23.73;9.50;;;;;;;16.02;100.00;101808.13;5032872;28;20041;-78
2022/07/22 00:50:44;;;;;;;30.08;10.65;;;;;;;16.15;100.00;101807.91;5046403;28;20044;-78
2022/07/22 00:53:10;;;;;;;24.63;9.40;;;;;;;15.99;100.00;101803.72;5034097;28;20048;-77
2022/07/22 00:55:36;;;;;;;25.50;10.20;;;;;;;15.98;100.00;101801.97;5025282;28;20025;-77
2022/07/22 00:58:03;;;;;;;26.58;10.00;;;;;;;16.03;100.00;101801.56;5030859;28;20048;-77
2022/07/22 01:00:30;;;;;;;31.42;9.23;;;;;;;16.02;100.00;101807.22;5051590;28;20033;-77
2022/07/22 01:02:56;;;;;;;22.70;9.20;;;;;;;15.97;100.00;101804.84;5055902;28;20140;-77
2022/07/22 01:05:22;;;;;;;22.38;9.45;;;;;;;15.89;100.00;101800.03;5044466;28;20501;-77
2022/07/22 01:07:48;;;;;;;21.85;9.45;;;;;;;15.96;100.00;101803.13;5046650;28;20064;-77
2022/07/22 01:10:13;;;;;;;25.30;8.98;;;;;;;15.95;100.00;101805.03;5037617;28;20033;-77
2022/07/22 01:12:39;;;;;;;20.42;9.13;;;;;;;15.95;100.00;101805.03;5040872;28;20064;-77
2022/07/22 01:15:05;;;;;;;26.33;9.00;;;;;;;15.92;100.00;101794.25;5039245;28;20439;-77
2022/07/22 01:17:30;;;;;;;22.38;8.98;;;;;;;15.93;100.00;101800.63;5006830;28;20037;-78
2022/07/22 01:20:05;;;;;;;23.90;8.68;;;;;;;15.92;100.00;101794.25;5034593;28;20029;-78
2022/07/22 01:22:31;;;;;;;24.00;8.68;;;;;;;15.92;100.00;101793.34;5011488;28;20124;-77
2022/07/22 01:24:57;;;;;;;19.42;8.55;;;;;;;15.93;100.00;101790.44;5044672;28;20025;-77
2022/07/22 01:27:23;;;;;;;31.25;8.68;;;;;;;15.87;100.00;101788.25;5046922;28;20086;-77
2022/07/22 01:29:48;;;;;;;18.58;9.40;;;;;;;15.93;100.00;101790.44;5037409;28;20111;-77
2022/07/22 01:32:14;;;;;;;21.33;8.93;;;;;;;15.92;100.00;101788.72;5035651;28;20534;-78
2022/07/22 01:34:39;;;;;;;20.33;8.52;;;;;;;15.88;100.00;101798.25;5038403;28;20068;-78
2022/07/22 01:37:05;;;;;;;28.88;8.32;;;;;;;16.01;100.00;101789.78;5019371;28;20038;-77
2022/07/22 01:39:30;;;;;;;23.65;8.45;;;;;;;16.09;100.00;101791.88;5046109;28;20547;-78
2022/07/22 01:41:56;;;;;;;26.05;7.80;;;;;;;16.07;100.00;101792.03;5050407;28;20171;-78
2022/07/22 01:44:21;;;;;;;21.35;7.53;;;;;;;15.95;100.00;101785.69;5027122;28;20033;-78
2022/07/22 01:46:47;;;;;;;24.70;8.27;;;;;;;15.84;100.00;101790.38;5027747;28;20437;-77
2022/07/22 01:49:12;;;;;;;27.45;8.63;;;;;;;15.79;100.00;101788.03;5031267;28;20040;-77
2022/07/22 01:51:38;;;;;;;20.45;8.32;;;;;;;15.96;100.00;101787.41;5039425;28;20116;-77
2022/07/22 01:54:03;;;;;;;21.50;8.68;;;;;;;15.84;100.00;101794.03;5047550;28;20121;-77
2022/07/22 01:56:29;;;;;;;25.58;8.57;;;;;;;15.86;100.00;101803.06;5046915;28;20037;-77
2022/07/22 01:58:54;;;;;;;21.13;7.95;;;;;;;15.86;100.00;101793.91;5030083;28;20485;-77
2022/07/22 02:01:21;;;;;;;25.50;8.63;;;;;;;15.85;100.00;101801.28;5020737;28;20048;-78
2022/07/22 02:03:46;;;;;;;22.13;8.25;;;;;;;15.82;100.00;101782.22;5046307;28;20029;-79
2022/07/22 02:06:12;;;;;;;23.35;8.25;;;;;;;15.88;100.00;101794.63;5025386;28;20172;-77
2022/07/22 02:08:37;;;;;;;23.92;8.82;;;;;;;15.87;100.00;101792.88;5042678;28;20465;-77
2022/07/22 02:11:03;;;;;;;24.67;8.90;;;;;;;15.87;100.00;101784.59;5044358;28;20067;-77
2022/07/22 02:13:28;;;;;;;27.50;9.30;;;;;;;15.82;100.00;101787.75;5035414;28;20523;-79
2022/07/22 02:15:54;;;;;;;20.20;8.45;;;;;;;15.79;100.00;101783.38;5034585;28;20489;-76
2022/07/22 02:18:19;;;;;;;21.85;9.25;;;;;;;15.70;100.00;101780.50;5033893;28;20037;-77
2022/07/22 02:20:46;;;;;;;29.80;9.10;;;;;;;15.75;100.00;101780.97;5035199;28;20527;-77
2022/07/22 02:23:12;;;;;;;28.33;10.23;;;;;;;15.81;100.00;101780.47;5030084;28;20057;-77
2022/07/22 02:25:39;;;;;;;22.73;8.75;;;;;;;15.79;100.00;101788.03;5034947;28;20048;-77
2022/07/22 02:28:04;;;;;;;25.55;9.77;;;;;;;15.77;100.00;101788.16;5039887;28;20037;-77
2022/07/22 02:30:30;;;;;;;26.48;8.95;;;;;;;15.67;100.00;101789.03;5053918;28;20036;-77
2022/07/22 02:32:56;;;;;;;22.98;8.77;;;;;;;15.81;100.00;101788.75;5010267;28;20025;-77
2022/07/22 02:35:22;;;;;;;19.52;8.77;;;;;;;15.86;100.00;101796.66;5045640;28;20496;-77
2022/07/22 02:37:47;;;;;;;22.88;9.00;;;;;;;15.84;100.00;101788.50;5043497;28;20033;-77
2022/07/22 02:40:13;;;;;;;29.98;9.25;;;;;;;15.88;100.00;101784.44;5037401;28;20050;-77
2022/07/22 02:42:38;;;;;;;29.30;9.68;;;;;;;15.79;100.00;101791.66;5033292;28;20505;-77
2022/07/22 02:45:04;;;;;;;33.30;9.20;;;;;;;15.84;100.00;101787.59;5035523;28;20041;-77
2022/07/22 02:47:30;;;;;;;25.52;9.38;;;;;;;15.88;100.00;101786.34;5035590;28;20045;-77
2022/07/22 02:49:55;;;;;;;20.75;9.40;;;;;;;15.84;100.00;101784.84;5020344;28;20173;-77
2022/07/22 02:52:21;;;;;;;20.45;9.40;;;;;;;15.88;100.00;101789.09;5021502;28;20481;-77
2022/07/22 02:54:46;;;;;;;40.20;9.55;;;;;;;15.79;100.00;101782.50;5035408;28;20124;-78
2022/07/22 02:57:12;;;;;;;24.40;9.60;;;;;;;15.82;100.00;101786.88;5018455;28;20056;-78
2022/07/22 02:59:37;;;;;;;24.08;8.90;;;;;;;15.76;100.00;101788.28;5019306;28;20033;-79
2022/07/22 03:02:03;;;;;;;23.52;8.98;;;;;;;15.73;100.00;101789.38;5020198;28;20113;-79
2022/07/22 03:04:28;;;;;;;27.95;7.97;;;;;;;15.75;100.00;101780.97;5038832;28;20037;-79
2022/07/22 03:06:54;;;;;;;22.13;8.77;;;;;;;15.75;100.00;101775.44;5031652;28;20044;-79
2022/07/22 03:09:19;;;;;;;25.95;9.30;;;;;;;15.82;100.00;101773.94;5046893;28;20043;-78
2022/07/22 03:11:45;;;;;;;16.25;8.25;;;;;;;15.80;100.00;101779.59;5043564;28;20055;-78
2022/07/22 03:14:11;;;;;;;28.52;8.52;;;;;;;15.91;100.00;101778.66;5038128;28;20060;-78
2022/07/22 03:16:37;;;;;;;16.58;7.50;;;;;;;15.85;100.00;101787.47;4989709;28;20029;-78
2022/07/22 03:19:03;;;;;;;27.27;8.50;;;;;;;15.86;100.00;101778.19;5035369;28;20033;-78
2022/07/22 03:21:29;;;;;;;28.83;8.63;;;;;;;15.85;100.00;101770.91;5036324;28;20039;-78
2022/07/22 03:23:54;;;;;;;23.55;8.18;;;;;;;15.89;100.00;101769.66;5003098;28;20357;-77
2022/07/22 03:26:23;;;;;;;20.80;7.93;;;;;;;15.82;100.00;101773.94;5034397;28;20044;-78
2022/07/22 03:28:49;;;;;;;22.30;8.35;;;;;;;15.86;100.00;101764.38;5041484;28;20033;-78
2022/07/22 03:31:15;;;;;;;18.73;8.45;;;;;;;15.90;100.00;101759.47;5033761;28;20041;-77
2022/07/22 03:33:41;;;;;;;22.20;8.73;;;;;;;15.85;100.00;101757.09;5046762;28;20033;-77
2022/07/22 03:36:07;;;;;;;28.35;9.70;;;;;;;15.94;100.00;101763.72;5025864;28;20041;-77
2022/07/22 03:38:34;;;;;;;30.80;9.98;;;;;;;15.93;100.00;101765.59;5039994;28;20074;-78
2022/07/22 03:40:59;;;;;;;37.28;9.52;;;;;;;15.92;100.00;101763.84;5042146;28;20508;-76
2022/07/22 03:43:25;;;;;;;20.75;8.90;;;;;;;15.87;100.00;101762.50;5013345;28;20029;-76
2022/07/22 03:45:50;;;;;;;26.25;9.32;;;;;;;15.77;100.00;101755.03;5034348;28;20079;-76
2022/07/22 03:48:16;;;;;;;27.67;9.52;;;;;;;15.78;100.00;101765.03;5005683;28;20080;-77
2022/07/22 03:50:41;;;;;;;28.65;9.60;;;;;;;15.74;100.00;101770.91;5036398;28;20045;-77
2022/07/22 03:53:07;;;;;;;29.00;9.95;;;;;;;15.77;100.00;101771.59;5039989;28;20071;-76
2022/07/22 03:55:32;;;;;;;27.17;9.02;;;;;;;15.83;100.00;101772.06;5036181;28;20048;-76
2022/07/22 03:57:58;;;;;;;31.88;9.00;;;;;;;15.84;100.00;101762.75;5052135;28;20041;-77
2022/07/22 04:00:23;;;;;;;28.83;9.68;;;;;;;15.79;100.00;101765.94;5034374;28;20712;-77
2022/07/22 04:02:49;;;;;;;25.73;9.63;;;;;;;15.93;100.00;101761.97;5041198;28;20083;-77
2022/07/22 04:05:14;;;;;;;30.58;10.35;;;;;;;15.85;100.00;101762.63;5032714;28;20049;-77
2022/07/22 04:07:40;;;;;;;25.38;9.50;;;;;;;15.80;100.00;101762.16;5029925;28;20468;-77
2022/07/22 04:10:06;;;;;;;28.33;9.70;;;;;;;15.84;100.00;101777.47;5045873;28;20141;-77
2022/07/22 04:12:36;;;;;;;26.77;9.90;;;;;;;15.83;100.00;101774.81;5025620;28;20092;-78
2022/07/22 04:15:03;;;;;;;25.35;10.07;;;;;;;15.80;100.00;101774.06;5044157;28;20056;-79
2022/07/22 04:17:29;;;;;;;27.60;10.70;;;;;;;15.86;100.00;101771.81;5040005;28;20122;-77
2022/07/22 04:19:55;;;;;;;26.20;9.85;;;;;;;15.89;100.00;101766.88;5035124;28;20505;-78
2022/07/22 04:22:21;;;;;;;25.38;9.70;;;;;;;15.94;100.00;101769.25;5038628;28;20124;-77
2022/07/22 04:24:46;;;;;;;21.05;9.63;;;;;;;15.89;100.00;101771.50;5034055;28;20164;-78
2022/07/22 04:27:12;;;;;;;29.92;9.98;;;;;;;15.90;100.00;101779.66;5028245;28;20035;-77
2022/07/22 04:29:37;;;;;;;27.75;10.50;;;;;;;16.02;100.00;101782.38;5042961;28;20087;-77
2022/07/22 04:32:03;;;;;;;29.10;9.80;;;;;;;15.92;100.00;101779.53;5033298;28;20052;-80
2022/07/22 04:34:29;;;;;;;25.83;9.82;;;;;;;15.99;100.00;101775.25;5038745;28;20124;-78
2022/07/22 04:36:55;;;;;;;32.08;10.40;;;;;;;15.91;100.00;101775.91;5054537;28;20033;-80
2022/07/22 04:39:21;;;;;;;28.60;10.30;;;;;;;15.88;100.00;101780.81;5053783;28;20044;-79
2022/07/22 04:41:46;;;;;;;33.67;9.60;;;;;;;15.96;100.00;101784.66;5021608;28;20382;-80
2022/07/22 04:44:12;;;;;;;33.35;9.65;;;;;;;15.94;100.00;101772.00;5025764;28;20119;-79
2022/07/22 04:46:37;;;;;;;23.63;10.27;;;;;;;15.93;100.00;101768.34;5034225;28;20061;-78
2022/07/22 04:49:03;;;;;;;26.73;9.63;;;;;;;16.11;100.00;101770.53;5037340;28;20507;-77
2022/07/22 04:51:28;;;;;;;27.23;10.65;;;;;;;16.08;100.00;101771.66;5024283;28;20056;-78
2022/07/22 04:53:55;;;;;;;26.67;10.50;;;;;;;16.04;100.00;101769.31;5044857;28;20033;-77
2022/07/22 04:56:20;;;;;;;28.98;10.63;;;;;;;16.02;100.00;101766.69;5032709;28;20180;-77
2022/07/22 04:58:46;;;;;;;30.48;10.18;;;;;;;16.08;100.00;101779.06;5020833;28;20533;-78
2022/07/22 05:01:12;;;;;;;39.58;10.45;;;;;;;16.05;100.00;101771.06;5028281;28;20041;-80
2022/07/22 05:03:39;;;;;;;23.50;9.45;;;;;;;16.08;100.00;101779.06;5044912;28;20508;-80
2022/07/22 05:06:04;;;;;;;26.25;9.88;;;;;;;16.09;100.00;101772.56;5021010;28;20040;-80
2022/07/22 05:08:30;;;;;;;29.40;10.32;;;;;;;16.21;100.00;101770.59;5040663;28;20033;-80
2022/07/22 05:10:55;;;;;;;24.45;10.48;;;;;;;16.10;100.00;101763.22;5027687;28;20037;-81
2022/07/22 05:13:21;;;;;;;33.17;10.35;;;;;;;16.19;100.00;101767.97;5018551;28;20059;-79
2022/07/22 05:15:46;;;;;;;25.52;9.85;;;;;;;16.19;100.00;101765.19;5019742;28;20045;-80
2022/07/22 05:18:12;;;;;;;24.95;10.50;;;;;;;16.16;100.00;101769.09;5034525;28;20037;-79
2022/07/22 05:20:38;;;;;;;28.27;9.95;;;;;;;16.26;100.00;101762.75;5019564;28;20071;-80
2022/07/22 05:23:03;;;;;;;31.65;10.63;;;;;;;16.24;100.00;101765.66;5041535;28;20108;-80
2022/07/22 05:25:29;;;;;;;32.10;10.70;;;;;;;16.33;100.00;101767.59;5031001;28;20037;-79
2022/07/22 05:27:55;;;;;;;31.15;10.00;;;;;;;16.25;100.00;101761.91;5015704;28;20064;-80
2022/07/22 05:30:22;;;;;;;31.40;9.90;;;;;;;16.39;100.00;101765.31;5039597;28;20029;-80
2022/07/22 05:32:47;;;;;;;25.67;9.55;;;;;;;16.42;100.00;101757.59;5017738;28;20044;-81
2022/07/22 05:35:13;;;;;;;27.40;10.35;;;;;;;16.34;100.00;101758.28;5032611;28;20029;-81
2022/07/22 05:37:41;;;;;;;29.13;10.93;;;;;;;16.51;100.00;101759.56;5046511;28;20108;-80
2022/07/22 05:40:07;;;;;;;24.75;9.68;;;;;;;16.49;100.00;101763.47;5033787;28;20429;-80
2022/07/22 05:42:33;;;;;;;24.10;9.77;;;;;;;16.52;100.00;101757.66;5036004;28;20489;-82
2022/07/22 05:44:58;;;;;;;25.65;9.05;;;;;;;16.68;100.00;101769.09;5035960;28;20049;-82
2022/07/22 05:47:24;;;;;;;24.05;10.95;;;;;;;16.75;100.00;101768.53;5035160;28;20033;-81
2022/07/22 05:49:50;;;;;;;27.88;10.23;;;;;;;16.72;100.00;101770.56;5049978;28;20211;-81
2022/07/22 05:52:15;;;;;;;27.00;10.23;;;;;;;16.83;100.00;101768.72;5036487;28;20037;-81
2022/07/22 05:54:41;;;;;;;21.90;8.13;;;;;;;16.90;100.00;101768.06;5029376;28;20068;-81
2022/07/22 05:57:10;;;;;;;28.58;9.00;;;;;;;17.16;100.00;101775.81;5042341;28;20037;-81
2022/07/22 05:59:36;;;;;;;30.33;9.85;;;;;;;16.89;100.00;101777.34;5045762;28;20049;-82
2022/07/22 06:02:02;;;;;;;23.90;10.52;;;;;;;17.02;100.00;101763.28;5040163;28;20033;-82
2022/07/22 06:04:28;;;;;;;23.33;9.70;;;;;;;16.96;100.00;101765.72;5040365;28;20025;-80
2022/07/22 06:06:53;;;;;;;34.58;10.70;;;;;;;17.01;100.00;101758.75;5039281;28;20041;-79
2022/07/22 06:09:19;;;;;;;28.80;10.23;;;;;;;17.18;100.00;101768.25;5052319;28;20045;-81
2022/07/22 06:11:44;;;;;;;27.25;9.70;;;;;;;17.15;100.00;101771.31;5038066;28;20429;-78
2022/07/22 06:14:10;;;;;;;26.83;9.30;;;;;;;17.19;100.00;101775.53;5025568;28;20560;-80
2022/07/22 06:16:36;;;;;;;31.20;9.70;;;;;;;17.22;100.00;101777.16;5044145;28;20086;-80
2022/07/22 06:19:02;;;;;;;26.50;9.15;;;;;;;17.15;100.00;101779.63;5042252;28;20041;-80
2022/07/22 06:21:28;;;;;;;26.33;9.80;;;;;;;17.27;100.00;101772.06;5021634;28;20091;-80
2022/07/22 06:23:53;;;;;;;22.60;9.23;;;;;;;17.30;100.00;101781.97;5054133;28;20037;-80
2022/07/22 06:26:19;;;;;;;19.20;8.23;;;;;;;17.33;100.00;101782.56;5043024;28;20032;-81
2022/07/22 06:28:44;;;;;;;27.50;8.95;;;;;;;17.44;100.00;101779.66;5035531;28;20069;-80
2022/07/22 06:31:10;;;;;;;28.08;8.38;;;;;;;17.58;100.00;101774.75;5022238;28;20120;-80
2022/07/22 06:33:37;;;;;;;27.02;7.53;;;;;;;17.82;100.00;101790.91;5050566;28;20380;-80
2022/07/22 06:36:03;;;;;;;19.13;6.72;;;;;;;17.62;100.00;101792.78;5022996;28;20044;-80
2022/07/22 06:38:29;;;;;;;24.48;7.22;;;;;;;17.63;100.00;101789.88;5051209;28;20033;-77
2022/07/22 06:40:55;;;;;;;20.42;6.93;;;;;;;17.68;100.00;101796.91;5048133;28;20104;-80
2022/07/22 06:43:20;;;;;;;20.27;6.00;;;;;;;17.77;100.00;101793.25;5039643;28;20057;-79
2022/07/22 06:45:46;;;;;;;19.35;6.22;;;;;;;17.83;100.00;101789.88;5023669;28;20044;-80
2022/07/22 06:48:12;;;;;;;20.80;6.60;;;;;;;17.82;100.00;101786.25;5055581;28;20048;-80
2022/07/22 06:50:37;;;;;;;24.27;6.90;;;;;;;17.79;100.00;101781.00;5048721;28;20050;-79
2022/07/22 06:53:03;;;;;;;15.52;7.13;;;;;;;17.99;100.00;101781.91;5038037;28;20046;-79
2022/07/22 06:55:28;;;;;;;16.45;7.20;;;;;;;18.10;100.00;101782.75;5023500;28;20107;-78
2022/07/22 06:57:54;;;;;;;16.70;7.43;;;;;;;18.16;100.00;101777.47;5035331;28;20079;-78
2022/07/22 07:00:19;;;;;;;22.67;7.18;;;;;;;18.29;100.00;101773.53;5040185;28;20494;-77
2022/07/22 07:02:45;;;;;;;20.42;7.05;;;;;;;18.32;100.00;101781.56;5042997;28;20029;-76
2022/07/22 07:05:11;;;;;;;14.98;7.30;;;;;;;18.48;100.00;101780.91;5045060;28;20036;-78
2022/07/22 07:07:37;;;;;;;15.60;7.55;;;;;;;18.35;100.00;101767.41;5040694;28;20037;-79
2022/07/22 07:10:03;;;;;;;16.60;6.90;;;;;;;18.52;100.00;101772.13;5046334;28;20492;-79
2022/07/22 07:12:29;;;;;;;11.82;4.78;;;;;;;18.22;100.00;101770.50;5054884;28;20037;-80
2022/07/22 07:14:54;;;;;;;11.98;4.97;;;;;;;18.17;100.00;101767.28;5021071;28;20362;-80
2022/07/22 07:17:20;;;;;;;13.75;4.93;;;;;;;18.16;100.00;101777.47;5038593;28;20032;-80
2022/07/22 07:19:45;;;;;;;17.65;4.50;;;;;;;17.98;100.00;101774.59;5039304;28;20025;-79
2022/07/22 07:22:11;;;;;;;14.35;4.32;;;;;;;17.82;100.00;101772.41;5050944;28;20083;-80
2022/07/22 07:24:36;;;;;;;14.95;3.72;;;;;;;18.02;100.00;101766.88;5055359;28;20025;-79
2022/07/22 07:27:02;;;;;;;15.70;3.83;;;;;;;18.14;100.00;101762.91;5034532;28;20418;-79
2022/07/22 07:29:27;;;;;;;7.20;2.03;;;;;;;18.02;100.00;101769.66;5028504;28;20028;-79
2022/07/22 07:31:53;;;;;;;8.70;2.00;;;;;;;18.16;100.00;101771.94;5038408;28;20059;-79
2022/07/22 07:34:18;;;;;;;5.93;1.95;;;;;;;18.27;100.00;101761.72;5048521;28;20045;-81
2022/07/22 07:36:44;;;;;;;6.45;2.33;;;;;;;18.21;100.00;101754.00;5018364;28;20071;-78
2022/07/22 07:39:09;;;;;;;11.10;2.28;;;;;;;18.13;100.00;101746.41;5019073;28;20040;-78
2022/07/22 07:41:35;;;;;;;8.25;2.65;;;;;;;18.42;100.00;101749.13;5019146;28;20031;-80
2022/07/22 07:44:00;;;;;;;7.88;2.75;;;;;;;18.47;100.00;101748.66;5003465;28;20076;-80
2022/07/22 07:46:26;;;;;;;6.80;2.45;;;;;;;18.76;100.00;101744.88;5054842;28;20045;-80
2022/07/22 07:48:51;;;;;;;8.73;2.95;;;;;;;18.90;100.00;101749.97;5038884;28;20036;-79
2022/07/22 07:51:18;;;;;;;5.88;2.15;;;;;;;18.80;100.00;101749.13;5053019;28;20033;-79
2022/07/22 07:53:44;;;;;;;8.90;2.33;;;;;;;19.02;100.00;101745.97;5038609;28;20116;-79
2022/07/22 07:56:09;;;;;;;10.30;2.33;;;;;;;20.20;100.00;101751.44;5054236;28;20125;-79
2022/07/22 07:58:35;;;;;;;7.90;2.08;;;;;;;20.93;100.00;101750.16;5050825;28;20033;-79
2022/07/22 08:01:00;;;;;;;5.90;2.22;;;;;;;21.49;100.00;101750.50;5036455;28;20093;-80
2022/07/22 08:03:26;;;;;;;3.75;1.55;;;;;;;21.69;100.00;101745.47;5018531;28;20519;-80
2022/07/22 08:05:52;;;;;;;7.43;1.80;;;;;;;22.02;100.00;101745.47;5035349;28;20447;-80
2022/07/22 08:08:18;;;;;;;7.20;1.30;;;;;;;22.42;100.00;101748.44;5036606;28;20033;-80
2022/07/22 08:10:43;;;;;;;3.72;1.40;;;;;;;22.82;100.00;101744.63;5034747;28;20041;-79
2022/07/22 08:13:09;;;;;;;7.10;2.40;;;;;;;21.66;100.00;101749.50;5017382;28;20092;-81
2022/07/22 08:15:35;;;;;;;7.03;2.63;;;;;;;21.11;100.00;101742.56;5034634;28;20124;-79
2022/07/22 08:18:01;;;;;;;5.70;2.30;;;;;;;20.90;100.00;101744.91;5034967;28;20434;-80
2022/07/22 08:20:27;;;;;;;6.88;2.20;;;;;;;20.52;100.00;101742.44;5018685;28;20040;-79
2022/07/22 08:22:53;;;;;;;10.82;2.70;;;;;;;20.32;100.00;101743.72;5018293;28;20390;-78
2022/07/22 08:25:19;;;;;;;10.32;3.28;;;;;;;20.13;100.00;101742.00;5036124;28;20104;-80
2022/07/22 08:27:45;;;;;;;14.95;4.00;;;;;;;19.64;100.00;101732.22;5054238;28;20091;-79
2022/07/22 08:30:11;;;;;;;10.75;2.75;;;;;;;19.37;100.00;101743.41;5053307;28;20116;-79
2022/07/22 08:32:38;;;;;;;6.10;2.00;;;;;;;19.19;100.00;101744.25;5055598;28;20090;-79
2022/07/22 08:35:04;;;;;;;8.02;2.03;;;;;;;19.17;100.00;101737.09;5054431;28;20029;-80
2022/07/22 08:37:30;;;;;;;6.25;2.40;;;;;;;18.88;100.00;101736.25;5054209;28;20435;-81
2022/07/22 08:39:55;;;;;;;7.72;1.98;;;;;;;19.18;100.00;101739.72;5052647;28;20041;-79
2022/07/22 08:42:22;;;;;;;8.60;1.88;;;;;;;19.12;100.00;101740.34;5037913;28;20082;-79
2022/07/22 08:44:48;;;;;;;6.38;1.95;;;;;;;18.86;100.00;101741.06;5055240;28;20072;-80
2022/07/22 08:47:14;;;;;;;8.10;1.92;;;;;;;19.09;100.00;101740.66;5054903;28;20029;-80
2022/07/22 08:49:40;;;;;;;3.50;1.80;;;;;;;18.72;100.00;101734.09;5054891;28;20047;-80
2022/07/22 08:52:05;;;;;;;6.22;1.80;;;;;;;18.92;100.00;101729.38;5055198;28;20029;-78
2022/07/22 08:54:31;;;;;;;5.55;1.40;;;;;;;19.05;100.00;101733.66;5033555;28;20045;-79
2022/07/22 08:56:57;;;;;;;4.40;1.65;;;;;;;19.18;100.00;101745.25;5003680;28;20040;-78
2022/07/22 08:59:23;;;;;;;8.88;2.05;;;;;;;19.33;100.00;101730.84;5044341;28;20543;-80
2022/07/22 09:02:02;;;;;;;9.93;2.40;;;;;;;19.56;100.00;101734.91;5037784;28;20524;-79
2022/07/22 09:04:27;;;;;;;5.97;3.10;;;;;;;19.88;100.00;101727.91;5038208;28;20029;-80
2022/07/22 09:06:53;;;;;;;7.28;2.78;;;;;;;19.74;100.00;101736.78;5037676;28;20052;-81
2022/07/22 09:09:29;;;;;;;5.45;2.72;;;;;;;19.79;100.00;101729.78;5036315;28;20048;-80
2022/07/22 09:12:07;;;;;;;10.25;2.92;;;;;;;19.96;100.00;101739.09;5037763;28;20057;-80
2022/07/22 09:14:46;;;;;;;7.68;2.85;;;;;;;19.95;100.00;101733.69;5050058;28;20044;-80
2022/07/22 09:17:35;;;;;;;4.97;2.47;;;;;;;19.98;100.00;101733.38;5039424;28;20493;-80
2022/07/22 09:20:05;;;;;;;6.15;2.30;;;;;;;19.97;100.00;101743.63;5039455;28;20495;-79
2022/07/22 09:22:40;;;;;;;8.07;1.80;;;;;;;20.19;100.00;101735.81;5039545;28;20036;-80
2022/07/22 09:25:35;;;;;;;5.75;2.10;;;;;;;20.99;100.00;101734.66;5038307;28;20366;-79
2022/07/22 09:28:06;;;;;;;7.88;2.42;;;;;;;21.15;100.00;101728.28;5037846;28;20108;-80
2022/07/22 09:30:39;;;;;;;8.98;2.20;;;;;;;21.57;100.00;101727.38;5038312;28;20233;-79
2022/07/22 09:33:07;;;;;;;5.25;1.63;;;;;;;22.11;100.00;101716.53;5024939;28;20037;-78
2022/07/22 09:35:32;;;;;;;7.63;2.70;;;;;;;21.63;100.00;101721.09;5039933;28;20108;-81
2022/07/22 09:38:04;;;;;;;7.53;2.58;;;;;;;21.50;100.00;101716.03;5039333;28;20112;-79
2022/07/22 09:40:39;;;;;;;8.13;2.27;;;;;;;22.02;100.00;101712.00;5038058;28;20628;-78
2022/07/22 09:43:12;;;;;;;7.03;2.42;;;;;;;22.37;100.00;101707.97;5038772;28;20389;-80
2022/07/22 09:45:50;;;;;;;7.75;2.63;;;;;;;22.07;100.00;101706.81;5038788;28;20033;-79
2022/07/22 09:48:17;;;;;;;9.52;2.78;;;;;;;22.72;100.00;101704.88;5037134;28;20038;-80
2022/07/22 09:50:44;;;;;;;4.40;2.45;;;;;;;22.61;99.29;101708.94;5054704;28;20405;-79
2022/07/22 09:53:10;;;;;;;7.28;2.50;;;;;;;22.65;99.25;101707.53;5037350;28;20034;-78
2022/07/22 09:55:38;;;;;;;7.80;2.20;;;;;;;23.00;100.00;101691.31;5042162;28;20493;-79
2022/07/22 09:58:04;;;;;;;7.18;2.35;;;;;;;23.60;91.79;101695.31;5037516;28;20039;-80
2022/07/22 10:00:29;;;;;;;6.47;2.30;;;;;;;23.76;85.58;101696.22;5020984;28;20029;-79
2022/07/22 10:02:58;;;;;;;4.60;2.75;;;;;;;23.67;87.45;101693.50;5020392;28;20087;-80
2022/07/22 10:05:31;;;;;;;7.13;2.53;;;;;;;23.53;89.06;101702.72;5037833;28;20042;-79
2022/07/22 10:07:57;;;;;;;5.05;2.30;;;;;;;23.12;90.38;101703.84;5039573;28;20063;-78
2022/07/22 10:10:26;;;;;;;6.60;3.08;;;;;;;21.74;99.15;101704.03;5071874;28;20026;-79
2022/07/22 10:12:54;;;;;;;4.03;2.30;;;;;;;22.80;95.73;101704.84;5037699;28;20029;-78
2022/07/22 10:15:21;;;;;;;8.48;2.40;;;;;;;22.63;100.00;101698.47;5021365;28;20026;-79
2022/07/22 10:17:49;;;;;;;6.78;2.65;;;;;;;22.38;100.00;101697.69;5037942;28;20028;-78
2022/07/22 10:20:21;;;;;;;7.47;2.38;;;;;;;22.25;100.00;101700.13;5043946;28;20037;-78
2022/07/22 10:22:58;;;;;;;3.83;2.17;;;;;;;21.93;100.00;101688.84;5057514;28;20051;-78
2022/07/22 10:25:45;;;;;;;7.82;2.60;;;;;;;22.02;100.00;101696.16;5059331;28;20384;-79
2022/07/22 10:28:22;;;;;;;4.78;2.30;;;;;;;21.16;100.00;101703.06;5037166;28;20397;-79
2022/07/22 10:30:48;;;;;;;5.65;2.65;;;;;;;21.29;100.00;101709.00;5039195;28;20481;-79
2022/07/22 10:33:22;;;;;;;7.35;2.28;;;;;;;21.48;100.00;101709.78;5020879;28;20040;-79
2022/07/22 10:36:02;;;;;;;5.90;2.35;;;;;;;22.44;100.00;101705.34;5039283;28;22243;-79
2022/07/22 10:38:30;;;;;;;8.05;2.33;;;;;;;23.24;95.96;101709.03;5069679;28;20079;-80
2022/07/22 10:41:01;;;;;;;10.57;2.30;;;;;;;23.27;94.48;101695.56;5022343;28;20057;-79
2022/07/22 10:43:31;;;;;;;4.40;2.20;;;;;;;23.37;92.61;101686.06;5049217;28;20114;-78
2022/07/22 10:46:05;;;;;;;7.28;2.40;;;;;;;23.21;94.92;101693.50;5056323;28;20032;-80
2022/07/22 10:48:37;;;;;;;6.65;2.33;;;;;;;23.92;91.41;101678.44;5053572;28;20465;-80
2022/07/22 10:51:12;;;;;;;7.33;2.83;;;;;;;23.84;94.59;101687.78;5040866;28;20040;-79
2022/07/22 10:53:51;;;;;;;6.05;2.40;;;;;;;23.25;91.79;101689.28;5040004;28;20036;-79
2022/07/22 10:56:26;;;;;;;5.00;2.33;;;;;;;22.65;94.00;101689.94;5040585;28;20033;-81
2022/07/22 10:59:08;;;;;;;9.60;2.33;;;;;;;22.47;96.41;101693.81;5058841;28;20033;-79
2022/07/22 11:01:34;;;;;;;6.10;2.03;;;;;;;23.00;92.29;101688.50;5056581;28;20075;-78
2022/07/22 11:04:24;;;;;;;3.78;2.22;;;;;;;22.47;94.13;101679.00;5035642;28;20032;-78
2022/07/22 11:06:55;;;;;;;4.97;2.22;;;;;;;22.92;87.82;101675.47;5056834;28;20032;-77
2022/07/22 11:09:23;;;;;;;8.13;2.38;;;;;;;22.33;97.87;101675.91;5058145;28;20112;-79
2022/07/22 11:11:56;;;;;;;4.90;2.40;;;;;;;22.35;99.30;101670.13;5046282;28;20037;-79